sensor_id;sensor_type;location;lat;lon;timestamp;pressure;altitude;pressure_sealevel;temperature;humidity
14117;BME280;7137;51.436;6.544;2023-06-10T00:01:35;100978.13;;;23.07;54.24
14117;BME280;7137;51.436;6.544;2023-06-10T00:04:39;100982.75;;;23.17;54.20
14117;BME280;7137;51.436;6.544;2023-06-10T00:07:41;100978.03;;;22.98;54.44
14117;BME280;7137;51.436;6.544;2023-06-10T00:10:43;100982.53;;;23.08;54.37
14117;BME280;7137;51.436;6.544;2023-06-10T00:13:44;100978.63;;;22.90;55.24
14117;BME280;7137;51.436;6.544;2023-06-10T00:16:46;100977.44;;;22.83;55.80
14117;BME280;7137;51.436;6.544;2023-06-10T00:19:49;100981.50;;;22.76;55.60
14117;BME280;7137;51.436;6.544;2023-06-10T00:22:50;100981.00;;;22.60;56.40
14117;BME280;7137;51.436;6.544;2023-06-10T00:25:52;100975.31;;;22.75;55.92
14117;BME280;7137;51.436;6.544;2023-06-10T00:28:54;100969.19;;;22.86;55.14
14117;BME280;7137;51.436;6.544;2023-06-10T00:31:55;100981.03;;;22.71;55.97
14117;BME280;7137;51.436;6.544;2023-06-10T00:34:59;100975.78;;;22.58;57.11
14117;BME280;7137;51.436;6.544;2023-06-10T00:38:01;100980.13;;;22.48;56.92
14117;BME280;7137;51.436;6.544;2023-06-10T00:41:02;100981.47;;;22.54;56.83
14117;BME280;7137;51.436;6.544;2023-06-10T00:44:04;100988.31;;;22.34;57.67
14117;BME280;7137;51.436;6.544;2023-06-10T00:47:07;100987.72;;;22.30;57.70
14117;BME280;7137;51.436;6.544;2023-06-10T00:50:10;100981.25;;;22.21;57.98
14117;BME280;7137;51.436;6.544;2023-06-10T00:53:12;100985.00;;;22.19;57.80
14117;BME280;7137;51.436;6.544;2023-06-10T00:56:14;100981.88;;;22.14;58.76
14117;BME280;7137;51.436;6.544;2023-06-10T00:59:16;100988.97;;;21.89;59.24
14117;BME280;7137;51.436;6.544;2023-06-10T01:02:18;100991.66;;;22.13;58.17
14117;BME280;7137;51.436;6.544;2023-06-10T01:05:23;100993.06;;;22.06;58.58
14117;BME280;7137;51.436;6.544;2023-06-10T01:08:29;100989.47;;;21.94;58.60
14117;BME280;7137;51.436;6.544;2023-06-10T01:11:36;100989.22;;;21.86;59.33
14117;BME280;7137;51.436;6.544;2023-06-10T01:14:42;100993.28;;;21.79;59.62
14117;BME280;7137;51.436;6.544;2023-06-10T01:17:57;100991.63;;;21.66;60.29
14117;BME280;7137;51.436;6.544;2023-06-10T01:21:00;100994.41;;;21.64;60.55
14117;BME280;7137;51.436;6.544;2023-06-10T01:24:04;100994.66;;;21.61;60.80
14117;BME280;7137;51.436;6.544;2023-06-10T01:27:12;100999.00;;;21.62;59.67
14117;BME280;7137;51.436;6.544;2023-06-10T01:30:18;101000.94;;;21.60;60.43
14117;BME280;7137;51.436;6.544;2023-06-10T01:33:25;101002.97;;;21.56;60.77
14117;BME280;7137;51.436;6.544;2023-06-10T01:36:29;100997.91;;;21.64;60.93
14117;BME280;7137;51.436;6.544;2023-06-10T01:39:33;101004.34;;;21.49;61.57
14117;BME280;7137;51.436;6.544;2023-06-10T01:42:35;100998.97;;;21.38;62.05
14117;BME280;7137;51.436;6.544;2023-06-10T01:45:36;100991.31;;;21.33;61.67
14117;BME280;7137;51.436;6.544;2023-06-10T01:48:38;100998.97;;;21.25;62.10
14117;BME280;7137;51.436;6.544;2023-06-10T01:51:40;100998.13;;;21.25;61.90
14117;BME280;7137;51.436;6.544;2023-06-10T01:54:43;100997.38;;;21.23;62.63
14117;BME280;7137;51.436;6.544;2023-06-10T01:57:45;100999.91;;;21.24;62.23
14117;BME280;7137;51.436;6.544;2023-06-10T02:00:47;100998.91;;;21.27;62.35
14117;BME280;7137;51.436;6.544;2023-06-10T02:03:48;101000.72;;;21.26;62.28
14117;BME280;7137;51.436;6.544;2023-06-10T02:06:50;101002.81;;;21.21;62.44
14117;BME280;7137;51.436;6.544;2023-06-10T02:09:53;101001.31;;;21.17;62.97
14117;BME280;7137;51.436;6.544;2023-06-10T02:12:55;101003.03;;;21.05;62.81
14117;BME280;7137;51.436;6.544;2023-06-10T02:15:56;100998.47;;;21.08;62.63
14117;BME280;7137;51.436;6.544;2023-06-10T02:18:58;101006.88;;;21.01;63.32
14117;BME280;7137;51.436;6.544;2023-06-10T02:22:00;101007.84;;;21.00;64.01
14117;BME280;7137;51.436;6.544;2023-06-10T02:25:05;101002.41;;;21.02;64.33
14117;BME280;7137;51.436;6.544;2023-06-10T02:28:07;101016.13;;;20.96;64.75
14117;BME280;7137;51.436;6.544;2023-06-10T02:31:08;101015.91;;;20.99;64.16
14117;BME280;7137;51.436;6.544;2023-06-10T02:34:10;101018.47;;;20.88;64.54
14117;BME280;7137;51.436;6.544;2023-06-10T02:37:12;101010.38;;;20.89;64.75
14117;BME280;7137;51.436;6.544;2023-06-10T02:40:14;101022.59;;;20.79;65.88
14117;BME280;7137;51.436;6.544;2023-06-10T02:43:16;101014.75;;;20.90;65.29
14117;BME280;7137;51.436;6.544;2023-06-10T02:46:17;101015.38;;;20.81;65.87
14117;BME280;7137;51.436;6.544;2023-06-10T02:49:19;101021.47;;;20.83;65.76
14117;BME280;7137;51.436;6.544;2023-06-10T02:52:20;101015.47;;;20.80;66.79
14117;BME280;7137;51.436;6.544;2023-06-10T02:55:24;101012.41;;;20.73;66.19
14117;BME280;7137;51.436;6.544;2023-06-10T02:58:26;101011.13;;;20.79;65.63
14117;BME280;7137;51.436;6.544;2023-06-10T03:01:27;101016.31;;;20.55;67.22
14117;BME280;7137;51.436;6.544;2023-06-10T03:04:32;101011.47;;;20.74;65.73
14117;BME280;7137;51.436;6.544;2023-06-10T03:07:35;101014.22;;;20.72;66.82
14117;BME280;7137;51.436;6.544;2023-06-10T03:10:38;101014.09;;;20.61;67.13
14117;BME280;7137;51.436;6.544;2023-06-10T03:13:40;101013.47;;;20.58;67.90
14117;BME280;7137;51.436;6.544;2023-06-10T03:16:42;101019.41;;;20.49;67.49
14117;BME280;7137;51.436;6.544;2023-06-10T03:19:44;101023.97;;;20.59;68.84
14117;BME280;7137;51.436;6.544;2023-06-10T03:22:46;101021.94;;;20.50;68.53
14117;BME280;7137;51.436;6.544;2023-06-10T03:25:48;101027.16;;;20.52;69.04
14117;BME280;7137;51.436;6.544;2023-06-10T03:28:50;101026.53;;;20.61;68.86
14117;BME280;7137;51.436;6.544;2023-06-10T03:31:52;101027.03;;;20.53;69.84
14117;BME280;7137;51.436;6.544;2023-06-10T03:34:53;101029.59;;;20.55;68.93
14117;BME280;7137;51.436;6.544;2023-06-10T03:37:57;101034.06;;;20.67;68.90
14117;BME280;7137;51.436;6.544;2023-06-10T03:41:00;101028.22;;;20.62;69.62
14117;BME280;7137;51.436;6.544;2023-06-10T03:44:02;101031.84;;;20.61;69.14
14117;BME280;7137;51.436;6.544;2023-06-10T03:47:04;101033.00;;;20.44;69.97
14117;BME280;7137;51.436;6.544;2023-06-10T03:50:07;101049.38;;;20.36;70.50
14117;BME280;7137;51.436;6.544;2023-06-10T03:53:09;101043.84;;;20.27;69.50
14117;BME280;7137;51.436;6.544;2023-06-10T03:56:12;101047.69;;;20.35;70.29
14117;BME280;7137;51.436;6.544;2023-06-10T03:59:13;101052.69;;;20.40;70.32
14117;BME280;7137;51.436;6.544;2023-06-10T04:02:15;101051.75;;;20.41;69.60
14117;BME280;7137;51.436;6.544;2023-06-10T04:05:19;101069.09;;;20.47;70.76
14117;BME280;7137;51.436;6.544;2023-06-10T04:08:21;101056.03;;;20.43;70.98
14117;BME280;7137;51.436;6.544;2023-06-10T04:11:25;101058.78;;;20.42;70.28
14117;BME280;7137;51.436;6.544;2023-06-10T04:14:26;101061.44;;;20.42;69.20
14117;BME280;7137;51.436;6.544;2023-06-10T04:17:28;101058.91;;;20.53;69.17
14117;BME280;7137;51.436;6.544;2023-06-10T04:20:29;101058.78;;;20.55;69.25
14117;BME280;7137;51.436;6.544;2023-06-10T04:23:31;101062.31;;;20.55;69.04
14117;BME280;7137;51.436;6.544;2023-06-10T04:26:34;101066.25;;;20.62;68.37
14117;BME280;7137;51.436;6.544;2023-06-10T04:29:36;101067.63;;;20.68;68.34
14117;BME280;7137;51.436;6.544;2023-06-10T04:32:37;101073.06;;;20.92;67.56
14117;BME280;7137;51.436;6.544;2023-06-10T04:35:39;101081.78;;;20.94;67.13
14117;BME280;7137;51.436;6.544;2023-06-10T04:38:40;101079.34;;;21.03;67.36
14117;BME280;7137;51.436;6.544;2023-06-10T04:41:44;101079.97;;;21.07;66.55
14117;BME280;7137;51.436;6.544;2023-06-10T04:44:45;101078.28;;;21.06;66.11
14117;BME280;7137;51.436;6.544;2023-06-10T04:47:47;101072.56;;;21.12;67.02
14117;BME280;7137;51.436;6.544;2023-06-10T04:50:48;101069.97;;;21.23;66.83
14117;BME280;7137;51.436;6.544;2023-06-10T04:53:50;101070.22;;;21.33;66.59
14117;BME280;7137;51.436;6.544;2023-06-10T04:56:53;101073.56;;;21.60;65.26
14117;BME280;7137;51.436;6.544;2023-06-10T04:59:55;101075.69;;;21.68;64.57
14117;BME280;7137;51.436;6.544;2023-06-10T05:02:57;101072.84;;;21.58;64.14
14117;BME280;7137;51.436;6.544;2023-06-10T05:05:58;101070.09;;;21.47;64.08
14117;BME280;7137;51.436;6.544;2023-06-10T05:09:00;101079.25;;;21.43;63.81
14117;BME280;7137;51.436;6.544;2023-06-10T05:12:04;101075.50;;;21.20;64.26
14117;BME280;7137;51.436;6.544;2023-06-10T05:15:07;101080.72;;;21.22;64.59
14117;BME280;7137;51.436;6.544;2023-06-10T05:18:09;101080.72;;;21.47;63.86
14117;BME280;7137;51.436;6.544;2023-06-10T05:21:10;101087.59;;;21.62;62.91
14117;BME280;7137;51.436;6.544;2023-06-10T05:27:15;101092.19;;;21.97;59.98
14117;BME280;7137;51.436;6.544;2023-06-10T05:30:17;101082.34;;;22.34;58.37
14117;BME280;7137;51.436;6.544;2023-06-10T05:33:19;101084.50;;;22.99;56.33
14117;BME280;7137;51.436;6.544;2023-06-10T05:36:20;101084.53;;;25.46;48.88
14117;BME280;7137;51.436;6.544;2023-06-10T05:39:22;101089.63;;;27.42;42.71
14117;BME280;7137;51.436;6.544;2023-06-10T05:42:24;101098.44;;;28.79;41.28
14117;BME280;7137;51.436;6.544;2023-06-10T05:45:26;101105.31;;;29.85;38.40
14117;BME280;7137;51.436;6.544;2023-06-10T05:48:28;101101.16;;;27.90;41.40
14117;BME280;7137;51.436;6.544;2023-06-10T05:51:29;101103.13;;;29.97;37.07
14117;BME280;7137;51.436;6.544;2023-06-10T05:54:31;101101.16;;;31.13;34.60
14117;BME280;7137;51.436;6.544;2023-06-10T05:57:34;101103.31;;;31.73;33.05
14117;BME280;7137;51.436;6.544;2023-06-10T06:00:36;101111.16;;;29.72;36.44
14117;BME280;7137;51.436;6.544;2023-06-10T06:03:37;101105.75;;;30.80;34.77
14117;BME280;7137;51.436;6.544;2023-06-10T06:06:39;101102.81;;;28.80;36.83
14117;BME280;7137;51.436;6.544;2023-06-10T06:09:41;101103.13;;;32.59;32.20
14117;BME280;7137;51.436;6.544;2023-06-10T06:12:44;101100.38;;;30.55;32.71
14117;BME280;7137;51.436;6.544;2023-06-10T06:15:46;101099.72;;;29.44;35.02
14117;BME280;7137;51.436;6.544;2023-06-10T06:18:47;101097.31;;;30.99;33.61
14117;BME280;7137;51.436;6.544;2023-06-10T06:21:49;101105.19;;;31.33;33.56
14117;BME280;7137;51.436;6.544;2023-06-10T06:24:50;101100.00;;;31.63;31.93
14117;BME280;7137;51.436;6.544;2023-06-10T06:27:53;101097.00;;;33.18;29.58
14117;BME280;7137;51.436;6.544;2023-06-10T06:30:55;101094.53;;;29.93;34.10
14117;BME280;7137;51.436;6.544;2023-06-10T06:33:56;101095.00;;;30.63;34.03
14117;BME280;7137;51.436;6.544;2023-06-10T06:36:59;101095.41;;;32.71;30.29
14117;BME280;7137;51.436;6.544;2023-06-10T06:40:02;101102.09;;;33.86;27.59
14117;BME280;7137;51.436;6.544;2023-06-10T06:43:05;101104.19;;;32.04;30.85
14117;BME280;7137;51.436;6.544;2023-06-10T06:46:06;101110.94;;;33.44;28.85
14117;BME280;7137;51.436;6.544;2023-06-10T06:49:08;101108.09;;;30.18;33.36
14117;BME280;7137;51.436;6.544;2023-06-10T06:52:10;101102.97;;;31.37;32.07
14117;BME280;7137;51.436;6.544;2023-06-10T06:55:11;101115.28;;;33.75;27.56
14117;BME280;7137;51.436;6.544;2023-06-10T06:58:14;101121.13;;;34.29;27.98
14117;BME280;7137;51.436;6.544;2023-06-10T07:01:16;101128.50;;;35.75;26.06
14117;BME280;7137;51.436;6.544;2023-06-10T07:04:18;101128.16;;;36.92;24.38
14117;BME280;7137;51.436;6.544;2023-06-10T07:07:22;101129.66;;;35.94;25.16
14117;BME280;7137;51.436;6.544;2023-06-10T07:10:24;101129.22;;;38.77;23.19
14117;BME280;7137;51.436;6.544;2023-06-10T07:13:27;101121.09;;;34.44;27.16
14117;BME280;7137;51.436;6.544;2023-06-10T07:16:28;101125.75;;;34.99;26.01
14117;BME280;7137;51.436;6.544;2023-06-10T07:19:30;101127.34;;;32.98;28.93
14117;BME280;7137;51.436;6.544;2023-06-10T07:22:31;101128.72;;;35.04;25.74
14117;BME280;7137;51.436;6.544;2023-06-10T07:25:33;101127.63;;;33.33;27.90
14117;BME280;7137;51.436;6.544;2023-06-10T07:28:36;101126.59;;;36.23;24.78
14117;BME280;7137;51.436;6.544;2023-06-10T07:31:38;101130.47;;;36.89;24.84
14117;BME280;7137;51.436;6.544;2023-06-10T07:34:39;101118.50;;;34.57;26.56
14117;BME280;7137;51.436;6.544;2023-06-10T07:37:41;101134.13;;;37.47;23.50
14117;BME280;7137;51.436;6.544;2023-06-10T07:40:42;101130.25;;;39.92;21.33
14117;BME280;7137;51.436;6.544;2023-06-10T07:43:45;101125.53;;;40.94;20.78
14117;BME280;7137;51.436;6.544;2023-06-10T07:46:47;101133.00;;;37.68;23.26
14117;BME280;7137;51.436;6.544;2023-06-10T07:49:48;101132.53;;;37.84;23.62
14117;BME280;7137;51.436;6.544;2023-06-10T07:52:50;101131.50;;;39.41;22.14
14117;BME280;7137;51.436;6.544;2023-06-10T07:55:51;101132.97;;;40.52;21.04
14117;BME280;7137;51.436;6.544;2023-06-10T07:58:54;101129.28;;;39.57;21.32
14117;BME280;7137;51.436;6.544;2023-06-10T08:01:56;101127.28;;;37.18;24.33
14117;BME280;7137;51.436;6.544;2023-06-10T08:04:57;101119.44;;;35.55;26.33
14117;BME280;7137;51.436;6.544;2023-06-10T08:07:59;101134.44;;;39.28;22.67
14117;BME280;7137;51.436;6.544;2023-06-10T08:11:00;101126.00;;;36.41;25.02
14117;BME280;7137;51.436;6.544;2023-06-10T08:14:03;101117.16;;;34.68;27.05
14117;BME280;7137;51.436;6.544;2023-06-10T08:17:05;101113.00;;;34.72;26.85
14117;BME280;7137;51.436;6.544;2023-06-10T08:20:07;101121.47;;;35.11;26.45
14117;BME280;7137;51.436;6.544;2023-06-10T08:23:09;101126.38;;;38.34;23.76
14117;BME280;7137;51.436;6.544;2023-06-10T08:26:11;101123.94;;;36.83;24.54
14117;BME280;7137;51.436;6.544;2023-06-10T08:29:14;101129.31;;;38.64;22.99
14117;BME280;7137;51.436;6.544;2023-06-10T08:32:16;101129.97;;;37.38;24.64
14117;BME280;7137;51.436;6.544;2023-06-10T08:35:17;101130.53;;;39.54;21.70
14117;BME280;7137;51.436;6.544;2023-06-10T08:38:19;101132.44;;;40.74;20.23
14117;BME280;7137;51.436;6.544;2023-06-10T08:41:23;101127.06;;;38.85;23.44
14117;BME280;7137;51.436;6.544;2023-06-10T08:44:29;101128.91;;;36.20;26.52
14117;BME280;7137;51.436;6.544;2023-06-10T08:47:34;101116.97;;;36.27;26.06
14117;BME280;7137;51.436;6.544;2023-06-10T08:50:37;101108.91;;;35.38;26.12
14117;BME280;7137;51.436;6.544;2023-06-10T08:53:50;101118.25;;;36.45;25.78
14117;BME280;7137;51.436;6.544;2023-06-10T08:56:57;101114.59;;;33.51;28.96
14117;BME280;7137;51.436;6.544;2023-06-10T09:00:02;101116.22;;;34.61;28.57
14117;BME280;7137;51.436;6.544;2023-06-10T09:03:04;101119.94;;;37.83;24.22
14117;BME280;7137;51.436;6.544;2023-06-10T09:06:08;101121.75;;;35.23;27.67
14117;BME280;7137;51.436;6.544;2023-06-10T09:09:12;101117.25;;;39.21;22.67
14117;BME280;7137;51.436;6.544;2023-06-10T09:12:14;101123.09;;;36.76;25.71
14117;BME280;7137;51.436;6.544;2023-06-10T09:15:17;101115.69;;;36.04;26.02
14117;BME280;7137;51.436;6.544;2023-06-10T09:18:19;101129.09;;;37.44;25.01
14117;BME280;7137;51.436;6.544;2023-06-10T09:21:21;101115.97;;;37.01;24.99
14117;BME280;7137;51.436;6.544;2023-06-10T09:24:23;101107.50;;;36.17;26.02
14117;BME280;7137;51.436;6.544;2023-06-10T09:27:25;101105.75;;;33.64;28.47
14117;BME280;7137;51.436;6.544;2023-06-10T09:30:29;101114.03;;;35.27;27.63
14117;BME280;7137;51.436;6.544;2023-06-10T09:33:31;101112.81;;;34.09;28.78
14117;BME280;7137;51.436;6.544;2023-06-10T09:36:33;101114.63;;;36.11;27.63
14117;BME280;7137;51.436;6.544;2023-06-10T09:39:35;101109.47;;;36.96;25.76
14117;BME280;7137;51.436;6.544;2023-06-10T09:42:38;101092.66;;;35.58;26.50
14117;BME280;7137;51.436;6.544;2023-06-10T09:45:41;101097.72;;;35.68;27.24
14117;BME280;7137;51.436;6.544;2023-06-10T09:48:44;101089.13;;;36.19;26.08
14117;BME280;7137;51.436;6.544;2023-06-10T09:51:50;101095.63;;;35.63;26.40
14117;BME280;7137;51.436;6.544;2023-06-10T09:54:53;101089.09;;;34.18;29.27
14117;BME280;7137;51.436;6.544;2023-06-10T09:57:54;101091.72;;;33.75;29.72
14117;BME280;7137;51.436;6.544;2023-06-10T10:00:57;101092.34;;;34.07;29.65
14117;BME280;7137;51.436;6.544;2023-06-10T10:03:59;101091.94;;;33.59;30.84
14117;BME280;7137;51.436;6.544;2023-06-10T10:07:02;101091.94;;;35.02;27.85
14117;BME280;7137;51.436;6.544;2023-06-10T10:10:05;101087.97;;;38.28;26.03
14117;BME280;7137;51.436;6.544;2023-06-10T10:13:07;101088.47;;;34.37;29.74
14117;BME280;7137;51.436;6.544;2023-06-10T10:16:14;101089.06;;;33.01;31.89
14117;BME280;7137;51.436;6.544;2023-06-10T10:19:20;101086.69;;;33.87;30.37
14117;BME280;7137;51.436;6.544;2023-06-10T10:22:25;101074.44;;;34.12;29.84
14117;BME280;7137;51.436;6.544;2023-06-10T10:25:29;101085.56;;;34.39;29.40
14117;BME280;7137;51.436;6.544;2023-06-10T10:28:41;101086.94;;;32.74;32.83
14117;BME280;7137;51.436;6.544;2023-06-10T10:31:46;101075.88;;;34.08;31.50
14117;BME280;7137;51.436;6.544;2023-06-10T10:34:55;101077.75;;;32.98;32.39
14117;BME280;7137;51.436;6.544;2023-06-10T10:37:58;101076.34;;;32.87;31.98
14117;BME280;7137;51.436;6.544;2023-06-10T10:41:00;101070.28;;;31.94;32.75
14117;BME280;7137;51.436;6.544;2023-06-10T10:44:02;101066.94;;;32.14;32.13
14117;BME280;7137;51.436;6.544;2023-06-10T10:47:08;101061.88;;;31.88;33.46
14117;BME280;7137;51.436;6.544;2023-06-10T10:50:14;101061.41;;;32.08;33.06
14117;BME280;7137;51.436;6.544;2023-06-10T10:53:19;101062.50;;;32.44;32.29
14117;BME280;7137;51.436;6.544;2023-06-10T10:56:21;101054.91;;;31.63;32.90
14117;BME280;7137;51.436;6.544;2023-06-10T10:59:23;101050.03;;;31.19;34.08
14117;BME280;7137;51.436;6.544;2023-06-10T11:02:36;101052.91;;;31.10;33.40
14117;BME280;7137;51.436;6.544;2023-06-10T11:05:41;101047.53;;;31.01;33.99
14117;BME280;7137;51.436;6.544;2023-06-10T11:08:49;101036.22;;;31.53;29.51
14117;BME280;7137;51.436;6.544;2023-06-10T11:11:51;101046.28;;;31.99;30.47
14117;BME280;7137;51.436;6.544;2023-06-10T11:14:55;101030.19;;;32.28;29.22
14117;BME280;7137;51.436;6.544;2023-06-10T11:18:11;101041.16;;;32.64;28.47
14117;BME280;7137;51.436;6.544;2023-06-10T11:21:23;101036.28;;;32.45;28.73
14117;BME280;7137;51.436;6.544;2023-06-10T11:24:25;101032.50;;;32.54;29.89
14117;BME280;7137;51.436;6.544;2023-06-10T11:27:37;101026.75;;;31.88;29.16
14117;BME280;7137;51.436;6.544;2023-06-10T11:30:42;101038.81;;;32.01;29.89
14117;BME280;7137;51.436;6.544;2023-06-10T11:33:44;101028.56;;;32.94;26.62
14117;BME280;7137;51.436;6.544;2023-06-10T11:36:47;101032.00;;;32.88;27.14
14117;BME280;7137;51.436;6.544;2023-06-10T11:39:51;101028.72;;;33.73;26.56
14117;BME280;7137;51.436;6.544;2023-06-10T11:42:53;101012.19;;;34.32;26.51
14117;BME280;7137;51.436;6.544;2023-06-10T11:45:55;101027.47;;;33.54;27.81
14117;BME280;7137;51.436;6.544;2023-06-10T11:48:58;101023.38;;;33.29;28.25
14117;BME280;7137;51.436;6.544;2023-06-10T11:52:04;101020.72;;;32.62;29.40
14117;BME280;7137;51.436;6.544;2023-06-10T11:55:07;101019.25;;;32.59;29.77
14117;BME280;7137;51.436;6.544;2023-06-10T11:58:12;101012.34;;;31.96;29.58
14117;BME280;7137;51.436;6.544;2023-06-10T12:01:19;101005.34;;;31.79;30.75
14117;BME280;7137;51.436;6.544;2023-06-10T12:04:22;101012.25;;;31.50;30.56
14117;BME280;7137;51.436;6.544;2023-06-10T12:07:25;101003.81;;;31.06;30.22
14117;BME280;7137;51.436;6.544;2023-06-10T12:10:26;101004.03;;;31.44;31.23
14117;BME280;7137;51.436;6.544;2023-06-10T12:13:28;101002.53;;;31.41;31.64
14117;BME280;7137;51.436;6.544;2023-06-10T12:16:30;101000.91;;;31.24;31.00
14117;BME280;7137;51.436;6.544;2023-06-10T12:19:31;101005.00;;;31.03;30.07
14117;BME280;7137;51.436;6.544;2023-06-10T12:22:38;101002.00;;;30.98;29.26
14117;BME280;7137;51.436;6.544;2023-06-10T12:25:49;100993.50;;;31.26;30.78
14117;BME280;7137;51.436;6.544;2023-06-10T12:28:51;101000.34;;;30.89;31.02
14117;BME280;7137;51.436;6.544;2023-06-10T12:31:58;100993.38;;;31.03;32.00
14117;BME280;7137;51.436;6.544;2023-06-10T12:35:02;100986.13;;;30.95;30.46
14117;BME280;7137;51.436;6.544;2023-06-10T12:38:06;100991.91;;;31.40;30.38
14117;BME280;7137;51.436;6.544;2023-06-10T12:41:07;100984.84;;;31.30;29.03
14117;BME280;7137;51.436;6.544;2023-06-10T12:44:09;100991.88;;;31.71;30.29
14117;BME280;7137;51.436;6.544;2023-06-10T12:47:11;100982.00;;;31.86;29.64
14117;BME280;7137;51.436;6.544;2023-06-10T12:50:13;100981.91;;;31.94;29.14
14117;BME280;7137;51.436;6.544;2023-06-10T12:53:16;100987.31;;;31.71;28.94
14117;BME280;7137;51.436;6.544;2023-06-10T12:56:18;100989.41;;;31.61;28.57
14117;BME280;7137;51.436;6.544;2023-06-10T12:59:20;100981.00;;;31.56;28.67
14117;BME280;7137;51.436;6.544;2023-06-10T13:02:21;100972.22;;;31.54;29.98
14117;BME280;7137;51.436;6.544;2023-06-10T13:05:24;100986.66;;;30.99;28.89
14117;BME280;7137;51.436;6.544;2023-06-10T13:08:27;100983.63;;;31.41;29.54
14117;BME280;7137;51.436;6.544;2023-06-10T13:11:29;100990.78;;;31.57;29.94
14117;BME280;7137;51.436;6.544;2023-06-10T13:14:30;100978.88;;;31.43;28.53
14117;BME280;7137;51.436;6.544;2023-06-10T13:17:32;100976.25;;;31.58;29.63
14117;BME280;7137;51.436;6.544;2023-06-10T13:20:34;100976.69;;;32.15;28.86
14117;BME280;7137;51.436;6.544;2023-06-10T13:23:37;100975.91;;;32.07;29.28
14117;BME280;7137;51.436;6.544;2023-06-10T13:26:39;100979.47;;;31.84;29.02
14117;BME280;7137;51.436;6.544;2023-06-10T13:29:41;100967.06;;;32.13;29.61
14117;BME280;7137;51.436;6.544;2023-06-10T13:32:42;100972.41;;;32.21;28.57
14117;BME280;7137;51.436;6.544;2023-06-10T13:35:44;100973.03;;;32.61;28.73
14117;BME280;7137;51.436;6.544;2023-06-10T13:38:47;100981.00;;;33.06;28.00
14117;BME280;7137;51.436;6.544;2023-06-10T13:41:48;100968.78;;;33.47;27.84
14117;BME280;7137;51.436;6.544;2023-06-10T13:44:50;100965.94;;;33.19;27.75
14117;BME280;7137;51.436;6.544;2023-06-10T13:47:51;100955.97;;;32.45;28.95
14117;BME280;7137;51.436;6.544;2023-06-10T13:50:53;100963.81;;;32.40;28.69
14117;BME280;7137;51.436;6.544;2023-06-10T13:53:56;100962.78;;;32.41;28.42
14117;BME280;7137;51.436;6.544;2023-06-10T13:56:57;100961.38;;;32.45;27.97
14117;BME280;7137;51.436;6.544;2023-06-10T14:00:00;100955.28;;;32.29;28.26
14117;BME280;7137;51.436;6.544;2023-06-10T14:03:02;100960.22;;;32.25;28.68
14117;BME280;7137;51.436;6.544;2023-06-10T14:06:04;100956.78;;;32.31;28.47
14117;BME280;7137;51.436;6.544;2023-06-10T14:09:07;100947.72;;;32.24;29.52
14117;BME280;7137;51.436;6.544;2023-06-10T14:12:09;100949.72;;;32.45;28.52
14117;BME280;7137;51.436;6.544;2023-06-10T14:15:11;100949.16;;;32.49;28.75
14117;BME280;7137;51.436;6.544;2023-06-10T14:18:13;100945.25;;;32.67;28.67
14117;BME280;7137;51.436;6.544;2023-06-10T14:21:14;100938.81;;;32.97;28.99
14117;BME280;7137;51.436;6.544;2023-06-10T14:24:17;100934.03;;;33.14;28.51
14117;BME280;7137;51.436;6.544;2023-06-10T14:27:18;100939.97;;;33.39;28.53
14117;BME280;7137;51.436;6.544;2023-06-10T14:30:21;100941.41;;;33.05;27.34
14117;BME280;7137;51.436;6.544;2023-06-10T14:33:22;100942.81;;;32.72;28.31
14117;BME280;7137;51.436;6.544;2023-06-10T14:36:24;100936.19;;;32.60;29.04
14117;BME280;7137;51.436;6.544;2023-06-10T14:39:27;100938.50;;;33.07;28.92
14117;BME280;7137;51.436;6.544;2023-06-10T14:42:28;100934.88;;;33.00;27.60
14117;BME280;7137;51.436;6.544;2023-06-10T14:45:30;100938.47;;;32.86;28.34
14117;BME280;7137;51.436;6.544;2023-06-10T14:48:32;100925.47;;;33.32;27.11
14117;BME280;7137;51.436;6.544;2023-06-10T14:51:33;100939.25;;;33.73;26.92
14117;BME280;7137;51.436;6.544;2023-06-10T14:54:36;100924.94;;;34.29;27.02
14117;BME280;7137;51.436;6.544;2023-06-10T14:57:38;100928.09;;;33.83;26.55
14117;BME280;7137;51.436;6.544;2023-06-10T15:00:39;100923.06;;;33.80;27.09
14117;BME280;7137;51.436;6.544;2023-06-10T15:03:41;100929.16;;;33.24;27.67
14117;BME280;7137;51.436;6.544;2023-06-10T15:06:42;100932.47;;;32.61;27.84
14117;BME280;7137;51.436;6.544;2023-06-10T15:09:45;100918.63;;;31.88;27.91
14117;BME280;7137;51.436;6.544;2023-06-10T15:12:47;100926.63;;;31.82;29.13
14117;BME280;7137;51.436;6.544;2023-06-10T15:15:55;100916.09;;;31.87;29.89
14117;BME280;7137;51.436;6.544;2023-06-10T15:18:57;100913.16;;;31.74;28.62
14117;BME280;7137;51.436;6.544;2023-06-10T15:21:59;100918.28;;;31.38;30.00
14117;BME280;7137;51.436;6.544;2023-06-10T15:25:01;100909.25;;;31.53;30.78
14117;BME280;7137;51.436;6.544;2023-06-10T15:28:03;100912.31;;;31.96;29.97
14117;BME280;7137;51.436;6.544;2023-06-10T15:31:06;100912.56;;;31.86;30.11
14117;BME280;7137;51.436;6.544;2023-06-10T15:34:08;100906.38;;;31.55;31.28
14117;BME280;7137;51.436;6.544;2023-06-10T15:37:09;100907.78;;;31.66;31.26
14117;BME280;7137;51.436;6.544;2023-06-10T15:40:12;100903.25;;;31.89;30.40
14117;BME280;7137;51.436;6.544;2023-06-10T15:43:14;100902.50;;;31.95;29.98
14117;BME280;7137;51.436;6.544;2023-06-10T15:46:15;100906.75;;;31.75;28.56
14117;BME280;7137;51.436;6.544;2023-06-10T15:49:17;100905.94;;;31.89;30.05
14117;BME280;7137;51.436;6.544;2023-06-10T15:52:18;100911.91;;;31.84;30.09
14117;BME280;7137;51.436;6.544;2023-06-10T15:55:21;100909.63;;;31.19;31.45
14117;BME280;7137;51.436;6.544;2023-06-10T15:58:23;100900.78;;;31.79;31.00
14117;BME280;7137;51.436;6.544;2023-06-10T16:01:25;100899.44;;;31.98;29.81
14117;BME280;7137;51.436;6.544;2023-06-10T16:04:27;100907.25;;;32.45;29.77
14117;BME280;7137;51.436;6.544;2023-06-10T16:07:28;100898.22;;;32.53;29.71
14117;BME280;7137;51.436;6.544;2023-06-10T16:10:31;100897.38;;;32.38;29.97